createdAt,value
2022-09-14T00:00:34.805Z,75.50
2022-09-14T00:03:01.673Z,75.40
2022-09-14T00:05:28.345Z,75.50
2022-09-14T00:07:55.047Z,75.30
2022-09-14T00:10:23.306Z,75.50
2022-09-14T00:12:49.912Z,75.40
2022-09-14T00:15:16.590Z,75.30
2022-09-14T00:17:43.518Z,75.40
2022-09-14T00:20:10.224Z,75.30
2022-09-14T00:22:36.903Z,75.30
2022-09-14T00:25:03.700Z,75.30
2022-09-14T00:27:30.355Z,75.30
2022-09-14T00:29:56.983Z,75.30
2022-09-14T00:32:23.640Z,75.30
2022-09-14T00:34:50.324Z,75.30
2022-09-14T00:37:17.017Z,75.30
2022-09-14T00:39:43.770Z,75.20
2022-09-14T00:42:13.876Z,75.20
2022-09-14T00:44:40.480Z,75.10
2022-09-14T00:47:07.167Z,75.30
2022-09-14T00:49:38.248Z,75.20
2022-09-14T00:52:10.318Z,75.20
2022-09-14T00:54:39.007Z,75.30
2022-09-14T00:57:05.653Z,75.20
2022-09-14T00:59:35.417Z,76.00
2022-09-14T01:02:02.311Z,75.20
2022-09-14T01:04:28.963Z,75.30
2022-09-14T01:07:01.338Z,75.20
2022-09-14T01:09:30.971Z,75.20
2022-09-14T01:12:17.424Z,75.40
2022-09-14T01:14:50.231Z,75.20
2022-09-14T01:17:25.251Z,75.10
2022-09-14T01:20:11.055Z,75.20
2022-09-14T01:22:58.829Z,75.30
2022-09-14T01:25:36.162Z,75.20
2022-09-14T01:28:05.690Z,75.10
2022-09-14T01:30:33.563Z,75.10
2022-09-14T01:33:09.869Z,75.10
2022-09-14T01:35:41.148Z,75.10
2022-09-14T01:38:10.463Z,75.10
2022-09-14T01:40:44.008Z,75.00
2022-09-14T01:43:22.931Z,75.00
2022-09-14T01:45:51.698Z,75.00
2022-09-14T01:48:21.712Z,75.00
2022-09-14T01:50:51.264Z,75.00
2022-09-14T01:53:22.444Z,74.90
2022-09-14T01:55:55.346Z,74.90
2022-09-14T01:58:26.611Z,74.90
2022-09-14T02:00:54.669Z,74.90
2022-09-14T02:03:26.805Z,74.90
2022-09-14T02:05:53.422Z,74.80
2022-09-14T02:08:20.379Z,75.40
2022-09-14T02:10:47.067Z,74.90
2022-09-14T02:13:13.911Z,74.80
2022-09-14T02:15:40.567Z,74.80
2022-09-14T02:18:07.242Z,74.90
2022-09-14T02:20:46.945Z,74.80
2022-09-14T02:23:13.631Z,74.70
2022-09-14T02:25:41.223Z,74.80
2022-09-14T02:28:08.145Z,74.70
2022-09-14T02:30:43.266Z,74.70
2022-09-14T02:33:18.974Z,74.60
2022-09-14T02:36:08.235Z,74.70
2022-09-14T02:38:40.642Z,74.60
2022-09-14T02:41:15.667Z,74.60
2022-09-14T02:43:49.486Z,74.50
2022-09-14T02:46:36.595Z,75.90
2022-09-14T02:49:06.201Z,74.50
2022-09-14T02:51:41.940Z,74.60
2022-09-14T02:54:14.790Z,74.60
2022-09-14T02:56:41.515Z,74.60
2022-09-14T02:59:08.167Z,74.70
2022-09-14T03:01:34.859Z,74.60
2022-09-14T03:04:01.625Z,74.60
2022-09-14T03:06:28.277Z,74.60
2022-09-14T03:08:54.886Z,74.60
2022-09-14T03:11:21.550Z,74.50
2022-09-14T03:13:48.232Z,74.50
2022-09-14T03:16:16.452Z,75.20
2022-09-14T03:18:43.537Z,74.50
2022-09-14T03:21:14.415Z,74.50
2022-09-14T03:23:42.388Z,74.50
2022-09-14T03:26:10.012Z,75.10
2022-09-14T03:28:36.952Z,74.60
2022-09-14T03:31:04.498Z,74.40
2022-09-14T03:33:31.200Z,74.50
2022-09-14T03:35:57.946Z,74.50
2022-09-14T03:38:26.914Z,74.50
2022-09-14T03:40:53.534Z,74.40
2022-09-14T03:43:20.425Z,74.40
2022-09-14T03:45:47.062Z,74.40
2022-09-14T03:48:15.782Z,74.50
2022-09-14T03:50:42.474Z,74.50
2022-09-14T03:53:09.107Z,74.50
2022-09-14T03:55:35.727Z,74.50
2022-09-14T03:58:02.326Z,74.30
2022-09-14T04:00:28.959Z,74.60
2022-09-14T04:02:55.755Z,74.50
2022-09-14T04:05:22.398Z,74.50
2022-09-14T04:07:49.013Z,74.70
2022-09-14T04:10:15.670Z,74.50
2022-09-14T04:12:42.388Z,74.60
2022-09-14T04:15:09.218Z,74.40
2022-09-14T04:17:35.836Z,74.50
2022-09-14T04:20:02.598Z,74.50
2022-09-14T04:22:29.188Z,74.20
2022-09-14T04:24:55.842Z,74.00
2022-09-14T04:27:22.456Z,73.90
2022-09-14T04:29:49.885Z,73.80
2022-09-14T04:32:16.815Z,73.70
2022-09-14T04:34:43.438Z,73.60
2022-09-14T04:37:10.067Z,73.50
2022-09-14T04:39:37.118Z,73.50
2022-09-14T04:42:03.810Z,73.50
2022-09-14T04:44:30.391Z,73.50
2022-09-14T04:46:57.078Z,73.50
2022-09-14T04:49:23.929Z,73.40
2022-09-14T04:51:50.592Z,73.40
2022-09-14T04:54:17.731Z,73.40
2022-09-14T04:56:44.682Z,74.40
2022-09-14T04:59:11.930Z,73.40
2022-09-14T05:01:43.112Z,73.30
2022-09-14T05:04:10.622Z,73.30
2022-09-14T05:06:39.259Z,73.30
2022-09-14T05:09:07.676Z,73.30
2022-09-14T05:11:35.125Z,73.30
2022-09-14T05:14:02.237Z,73.30
2022-09-14T05:16:30.475Z,73.30
2022-09-14T05:18:58.306Z,73.30
2022-09-14T05:21:25.195Z,73.40
2022-09-14T05:23:55.847Z,73.30
2022-09-14T05:26:22.808Z,73.30
2022-09-14T05:28:51.618Z,73.40
2022-09-14T05:31:18.566Z,73.50
2022-09-14T05:33:45.376Z,73.40
2022-09-14T05:36:12.019Z,73.50
2022-09-14T05:38:39.363Z,74.10
2022-09-14T05:41:06.799Z,73.40
2022-09-14T05:43:33.419Z,73.50
2022-09-14T05:46:07.776Z,73.30
2022-09-14T05:48:35.031Z,73.40
2022-09-14T05:51:02.839Z,73.40
2022-09-14T05:53:29.515Z,73.50
2022-09-14T05:56:05.142Z,73.50
2022-09-14T05:58:31.927Z,73.50
2022-09-14T06:00:58.562Z,73.60
2022-09-14T06:03:25.184Z,73.50
2022-09-14T06:05:54.813Z,73.50
2022-09-14T06:08:21.790Z,73.60
2022-09-14T06:10:48.585Z,73.60
2022-09-14T06:13:15.252Z,73.70
2022-09-14T06:15:41.927Z,73.60
2022-09-14T06:18:08.534Z,73.60
2022-09-14T06:20:35.157Z,73.70
2022-09-14T06:23:01.758Z,73.60
2022-09-14T06:25:28.690Z,73.60
2022-09-14T06:27:55.360Z,73.60
2022-09-14T06:30:21.965Z,73.60
2022-09-14T06:32:48.599Z,73.50
2022-09-14T06:35:15.349Z,73.60
2022-09-14T06:37:41.955Z,73.60
2022-09-14T06:40:08.842Z,73.60
2022-09-14T06:42:35.757Z,73.60
2022-09-14T06:45:02.457Z,73.60
2022-09-14T06:47:32.922Z,73.60
2022-09-14T06:49:59.571Z,73.70
2022-09-14T06:52:28.603Z,73.70
2022-09-14T06:54:57.153Z,73.70
2022-09-14T06:57:23.823Z,74.10
2022-09-14T06:59:50.487Z,73.80
2022-09-14T07:02:17.166Z,73.70
2022-09-14T07:04:43.861Z,73.80
2022-09-14T07:07:10.580Z,73.80
2022-09-14T07:09:37.742Z,73.80
2022-09-14T07:12:04.510Z,73.80
2022-09-14T07:14:32.475Z,73.70
2022-09-14T07:16:59.239Z,73.70
2022-09-14T07:19:25.858Z,73.60
2022-09-14T07:21:54.656Z,73.60
2022-09-14T07:24:21.784Z,73.50
2022-09-14T07:26:48.772Z,73.50
2022-09-14T07:29:17.186Z,73.30
2022-09-14T07:31:48.180Z,73.50
2022-09-14T07:34:15.811Z,73.40
2022-09-14T07:36:42.908Z,73.40
2022-09-14T07:39:11.355Z,73.40
2022-09-14T07:41:38.006Z,73.40
2022-09-14T07:44:06.182Z,73.40
2022-09-14T07:46:38.400Z,73.40
2022-09-14T07:49:05.506Z,73.40
2022-09-14T07:51:32.877Z,73.50
2022-09-14T07:54:02.429Z,73.40
2022-09-14T07:56:29.689Z,73.50
2022-09-14T07:59:11.602Z,73.40
2022-09-14T08:01:44.256Z,73.40
2022-09-14T08:04:11.210Z,73.50
2022-09-14T08:06:38.427Z,73.50
2022-09-14T08:09:06.518Z,73.50
2022-09-14T08:11:35.156Z,73.50
2022-09-14T08:14:03.426Z,73.60
2022-09-14T08:16:31.496Z,73.70
2022-09-14T08:18:59.370Z,73.70
2022-09-14T08:21:26.881Z,73.70
2022-09-14T08:23:54.055Z,73.70
2022-09-14T08:26:24.533Z,73.70
2022-09-14T08:28:51.709Z,73.80
2022-09-14T08:31:22.343Z,73.80
2022-09-14T08:33:50.441Z,73.70
2022-09-14T08:36:18.979Z,73.80
2022-09-14T08:38:45.641Z,73.80
2022-09-14T08:41:18.362Z,73.80
2022-09-14T08:43:44.991Z,73.90
2022-09-14T08:46:27.215Z,73.90
2022-09-14T08:48:54.030Z,73.90
2022-09-14T08:51:20.703Z,74.00
2022-09-14T08:53:47.751Z,74.10
2022-09-14T08:56:17.143Z,74.10
2022-09-14T08:58:57.241Z,74.20
2022-09-14T09:01:39.247Z,74.20
2022-09-14T09:04:05.847Z,74.10
2022-09-14T09:06:51.183Z,74.20
2022-09-14T09:09:23.149Z,74.10
2022-09-14T09:11:51.488Z,74.00
2022-09-14T09:14:24.202Z,73.80
2022-09-14T09:16:52.987Z,73.80
2022-09-14T09:19:28.463Z,73.60
2022-09-14T09:21:55.603Z,73.60
2022-09-14T09:24:38.003Z,73.50
2022-09-14T09:27:14.282Z,73.40
2022-09-14T09:29:42.502Z,73.40
2022-09-14T09:32:27.363Z,73.40
2022-09-14T09:34:54.225Z,73.40
2022-09-14T09:37:22.435Z,73.30
2022-09-14T09:39:49.649Z,73.20
2022-09-14T09:42:21.214Z,73.10
2022-09-14T09:45:03.593Z,73.20
2022-09-14T09:47:38.154Z,73.30
2022-09-14T09:50:06.834Z,73.30
2022-09-14T09:52:34.770Z,73.20
2022-09-14T09:55:02.586Z,73.30
2022-09-14T09:57:33.488Z,73.30
2022-09-14T10:00:18.271Z,73.20
2022-09-14T10:02:45.207Z,73.30
2022-09-14T10:05:14.564Z,73.30
2022-09-14T10:07:50.260Z,73.20
2022-09-14T10:10:18.219Z,73.30
2022-09-14T10:12:55.035Z,73.30
2022-09-14T10:15:23.229Z,73.30
2022-09-14T10:17:54.050Z,73.30
2022-09-14T10:20:21.879Z,73.40
2022-09-14T10:22:48.487Z,73.40
2022-09-14T10:25:15.096Z,73.30
2022-09-14T10:27:46.118Z,73.50
2022-09-14T10:30:14.554Z,73.50
2022-09-14T10:32:43.483Z,73.50
2022-09-14T10:35:14.025Z,73.30
2022-09-14T10:37:59.651Z,73.50
2022-09-14T10:40:37.259Z,73.30
2022-09-14T10:43:14.632Z,73.50
2022-09-14T10:45:45.951Z,73.30
2022-09-14T10:48:31.224Z,73.20
2022-09-14T10:50:58.640Z,73.20
2022-09-14T10:53:35.115Z,73.20
2022-09-14T10:56:20.530Z,73.20
2022-09-14T10:58:56.234Z,73.20
2022-09-14T11:01:38.195Z,73.20
2022-09-14T11:04:20.101Z,73.20
2022-09-14T11:07:05.147Z,73.20
2022-09-14T11:09:51.487Z,73.20
2022-09-14T11:12:43.009Z,73.20
2022-09-14T11:15:32.147Z,73.20
2022-09-14T11:18:07.891Z,73.30
2022-09-14T11:20:53.498Z,73.30
2022-09-14T11:23:30.149Z,73.40
2022-09-14T11:26:23.154Z,73.30
2022-09-14T11:28:55.931Z,73.40
2022-09-14T11:31:22.571Z,73.40
2022-09-14T11:33:54.545Z,73.50
2022-09-14T11:36:21.133Z,73.50
2022-09-14T11:39:04.685Z,73.50
2022-09-14T11:41:33.233Z,73.60
2022-09-14T11:44:06.200Z,73.50
2022-09-14T11:46:44.970Z,73.60
2022-09-14T11:49:30.695Z,73.50
2022-09-14T11:52:01.511Z,73.50
2022-09-14T11:54:28.418Z,73.50
2022-09-14T11:56:58.719Z,73.40
2022-09-14T11:59:36.458Z,73.40
2022-09-14T12:02:21.978Z,73.40
2022-09-14T12:05:10.640Z,73.30
2022-09-14T12:07:40.506Z,73.30
2022-09-14T12:10:16.668Z,73.20
2022-09-14T12:12:47.862Z,73.00
2022-09-14T12:15:23.095Z,73.10
2022-09-14T12:17:50.686Z,73.00
2022-09-14T12:20:36.218Z,72.90
2022-09-14T12:23:06.089Z,73.10
2022-09-14T12:25:34.037Z,72.90
2022-09-14T12:28:00.714Z,72.90
2022-09-14T12:30:40.483Z,73.00
2022-09-14T12:33:28.032Z,72.90
2022-09-14T12:35:54.663Z,72.90
2022-09-14T12:38:30.542Z,72.80
2022-09-14T12:40:58.031Z,72.90
2022-09-14T12:43:33.663Z,72.80
2022-09-14T12:46:01.895Z,72.90
2022-09-14T12:48:50.730Z,72.90
2022-09-14T12:51:29.659Z,72.90
2022-09-14T12:54:06.487Z,72.80
2022-09-14T12:56:48.377Z,72.90
2022-09-14T12:59:34.011Z,72.90
2022-09-14T13:02:03.809Z,72.80
2022-09-14T13:04:34.166Z,72.90
2022-09-14T13:07:02.337Z,72.90
2022-09-14T13:09:30.615Z,72.90
2022-09-14T13:12:04.790Z,72.90
2022-09-14T13:14:48.306Z,73.00
2022-09-14T13:17:16.179Z,72.10
2022-09-14T13:19:42.974Z,72.40
2022-09-14T13:22:19.934Z,72.50
2022-09-14T13:24:47.452Z,72.50
2022-09-14T13:27:30.386Z,72.70
2022-09-14T13:30:20.376Z,72.70
2022-09-14T13:32:49.753Z,72.90
2022-09-14T13:35:17.651Z,72.90
2022-09-14T13:37:48.179Z,72.90
2022-09-14T13:40:15.248Z,73.70
2022-09-14T13:42:42.153Z,73.00
2022-09-14T13:45:10.211Z,72.90
2022-09-14T13:47:38.642Z,73.10
2022-09-14T13:50:06.467Z,73.10
2022-09-14T13:55:24.286Z,73.20
2022-09-14T13:58:09.363Z,73.20
2022-09-14T14:00:56.459Z,73.10
2022-09-14T14:03:39.939Z,73.30
2022-09-14T14:06:20.414Z,73.30
2022-09-14T14:09:07.450Z,73.30
2022-09-14T14:11:34.170Z,73.40
2022-09-14T14:14:18.106Z,73.40
2022-09-14T14:17:03.544Z,73.50
2022-09-14T14:19:31.052Z,73.50
2022-09-14T14:22:16.134Z,73.50
2022-09-14T14:25:09.075Z,73.50
2022-09-14T14:27:31.854Z,73.50
2022-09-14T14:30:00.138Z,73.60
2022-09-14T14:32:27.128Z,73.60
2022-09-14T14:34:54.121Z,73.30
2022-09-14T14:37:21.032Z,73.40
2022-09-14T14:39:49.785Z,73.30
2022-09-14T14:42:17.136Z,73.30
2022-09-14T14:44:44.341Z,73.20
2022-09-14T14:47:12.382Z,73.10
2022-09-14T14:49:39.003Z,73.10
2022-09-14T14:52:06.773Z,73.10
2022-09-14T14:54:33.443Z,73.00
2022-09-14T14:57:00.250Z,75.00
2022-09-14T14:59:28.044Z,73.10
2022-09-14T15:01:55.298Z,73.10
2022-09-14T15:04:21.905Z,72.90
2022-09-14T15:06:48.950Z,72.90
2022-09-14T15:09:18.387Z,72.90
2022-09-14T15:11:45.255Z,72.80
2022-09-14T15:14:13.378Z,72.90
2022-09-14T15:16:40.077Z,72.90
2022-09-14T15:19:06.942Z,72.80
2022-09-14T15:21:33.582Z,72.90
2022-09-14T15:24:00.270Z,72.90
2022-09-14T15:26:26.976Z,73.40
2022-09-14T15:28:53.621Z,73.00
2022-09-14T15:31:20.730Z,72.90
2022-09-14T15:33:47.463Z,73.10
2022-09-14T15:36:14.164Z,72.70
2022-09-14T15:38:40.896Z,73.00
2022-09-14T15:41:10.911Z,72.80
2022-09-14T15:43:37.574Z,73.00
2022-09-14T15:46:04.343Z,73.00
2022-09-14T15:48:31.170Z,73.70
2022-09-14T15:51:00.678Z,73.10
2022-09-14T15:53:27.474Z,73.10
2022-09-14T15:55:54.127Z,73.20
2022-09-14T15:58:20.755Z,73.20
2022-09-14T16:00:47.509Z,74.10
2022-09-14T16:03:14.333Z,73.20
2022-09-14T16:05:40.955Z,73.20
2022-09-14T16:08:07.644Z,73.30
2022-09-14T16:10:34.621Z,73.30
2022-09-14T16:13:01.322Z,73.30
2022-09-14T16:15:27.966Z,73.40
2022-09-14T16:17:55.481Z,73.40
2022-09-14T16:20:22.302Z,73.40
2022-09-14T16:22:49.767Z,73.40
2022-09-14T16:25:16.599Z,72.90
2022-09-14T16:27:43.402Z,73.40
2022-09-14T16:30:10.227Z,73.60
2022-09-14T16:32:36.883Z,73.50
2022-09-14T16:35:07.914Z,73.60
2022-09-14T16:37:35.028Z,73.60
2022-09-14T16:40:02.186Z,73.60
2022-09-14T16:42:28.874Z,73.70
2022-09-14T16:44:55.470Z,73.70
2022-09-14T16:47:22.140Z,73.70
2022-09-14T16:49:48.842Z,73.70
2022-09-14T16:52:15.461Z,73.70
2022-09-14T16:54:42.491Z,73.70
2022-09-14T16:57:09.383Z,73.70
2022-09-14T16:59:36.089Z,73.70
2022-09-14T17:02:02.899Z,73.90
2022-09-14T17:04:29.659Z,73.70
2022-09-14T17:06:56.914Z,73.70
2022-09-14T17:09:25.297Z,73.70
2022-09-14T17:11:52.346Z,73.70
2022-09-14T17:14:20.301Z,73.70
2022-09-14T17:16:47.318Z,73.70
2022-09-14T17:19:14.553Z,73.60
2022-09-14T17:21:42.425Z,73.50
2022-09-14T17:24:09.627Z,74.10
2022-09-14T17:26:36.549Z,73.40
2022-09-14T17:29:03.879Z,73.50
2022-09-14T17:31:32.774Z,73.40
2022-09-14T17:34:00.501Z,73.30
2022-09-14T17:36:27.487Z,73.40
2022-09-14T17:38:55.994Z,73.10
2022-09-14T17:41:23.382Z,73.00
2022-09-14T17:43:51.447Z,72.90
2022-09-14T17:46:18.862Z,72.80
2022-09-14T17:48:45.527Z,72.70
2022-09-14T17:51:17.439Z,72.70
2022-09-14T17:53:44.998Z,72.70
2022-09-14T17:56:13.321Z,72.70
2022-09-14T17:58:40.397Z,72.70
2022-09-14T18:01:09.202Z,72.70
2022-09-14T18:03:37.030Z,72.70
2022-09-14T18:06:04.173Z,72.70
2022-09-14T18:08:30.854Z,73.40
2022-09-14T18:11:02.765Z,72.70
2022-09-14T18:13:29.387Z,72.70
2022-09-14T18:15:56.755Z,72.80
2022-09-14T18:18:23.438Z,72.80
2022-09-14T18:20:50.216Z,72.80
2022-09-14T18:23:16.939Z,72.80
2022-09-14T18:25:43.759Z,72.80
2022-09-14T18:28:10.406Z,72.80
2022-09-14T18:30:40.483Z,72.80
2022-09-14T18:33:10.113Z,72.80
2022-09-14T18:35:37.762Z,72.90
2022-09-14T18:38:06.606Z,72.90
2022-09-14T18:40:36.877Z,72.90
2022-09-14T18:43:03.943Z,72.90
2022-09-14T18:45:30.730Z,72.90
2022-09-14T18:47:57.424Z,72.90
2022-09-14T18:50:24.152Z,73.00
2022-09-14T18:52:51.614Z,73.40
2022-09-14T18:55:18.997Z,73.00
2022-09-14T18:57:48.822Z,73.10
2022-09-14T19:00:18.653Z,73.10
2022-09-14T19:02:50.494Z,73.10
2022-09-14T19:05:17.178Z,73.20
2022-09-14T19:07:43.848Z,73.20
2022-09-14T19:10:11.699Z,73.20
2022-09-14T19:12:38.567Z,73.20
2022-09-14T19:15:05.526Z,74.10
2022-09-14T19:17:32.334Z,73.10
2022-09-14T19:19:59.273Z,72.90
2022-09-14T19:22:26.222Z,72.70
2022-09-14T19:24:52.923Z,72.70
2022-09-14T19:27:19.763Z,72.60
2022-09-14T19:29:46.375Z,72.60
2022-09-14T19:32:13.906Z,72.60
2022-09-14T19:34:40.598Z,72.60
2022-09-14T19:37:07.223Z,72.60
2022-09-14T19:39:33.815Z,72.70
2022-09-14T19:42:00.510Z,72.70
2022-09-14T19:44:27.178Z,72.70
2022-09-14T19:46:53.835Z,72.60
2022-09-14T19:49:21.754Z,72.60
2022-09-14T19:51:48.830Z,72.60
2022-09-14T19:54:15.679Z,72.70
2022-09-14T19:56:42.837Z,72.90
2022-09-14T19:59:09.657Z,72.80
2022-09-14T20:01:37.847Z,72.70
2022-09-14T20:04:05.251Z,72.70
2022-09-14T20:09:05.837Z,72.90
2022-09-14T20:11:33.602Z,72.70
2022-09-14T20:14:02.597Z,72.70
2022-09-14T20:16:30.839Z,72.80
2022-09-14T20:18:58.494Z,72.90
2022-09-14T20:21:26.803Z,72.90
2022-09-14T20:24:15.253Z,72.90
2022-09-14T20:26:42.693Z,72.90
2022-09-14T20:29:09.538Z,73.00
2022-09-14T20:31:36.204Z,72.90
2022-09-14T20:34:03.186Z,73.10
2022-09-14T20:36:30.134Z,73.00
2022-09-14T20:38:57.523Z,73.00
2022-09-14T20:41:25.278Z,73.10
2022-09-14T20:43:52.158Z,73.20
2022-09-14T20:46:20.176Z,73.20
2022-09-14T20:48:48.107Z,73.20
2022-09-14T20:51:19.896Z,73.30
2022-09-14T20:53:47.665Z,73.30
2022-09-14T20:56:15.695Z,73.30
2022-09-14T20:58:42.619Z,73.30
2022-09-14T21:01:13.465Z,73.40
2022-09-14T21:03:42.239Z,73.30
2022-09-14T21:06:13.861Z,73.40
2022-09-14T21:08:40.966Z,73.40
2022-09-14T21:11:10.434Z,73.40
2022-09-14T21:13:37.218Z,73.40
2022-09-14T21:16:14.785Z,73.60
2022-09-14T21:18:42.189Z,73.50
2022-09-14T21:21:10.284Z,73.60
2022-09-14T21:23:37.183Z,73.50
2022-09-14T21:26:05.038Z,73.50
2022-09-14T21:28:31.796Z,73.50
2022-09-14T21:31:15.565Z,73.50
2022-09-14T21:33:44.134Z,73.40
2022-09-14T21:36:12.018Z,73.40
2022-09-14T21:38:39.233Z,73.40
2022-09-14T21:41:10.219Z,73.30
2022-09-14T21:43:37.795Z,73.40
2022-09-14T21:46:05.879Z,73.40
2022-09-14T21:48:32.594Z,73.40
2022-09-14T21:51:06.782Z,73.40
2022-09-14T21:53:33.660Z,73.40
2022-09-14T21:56:02.160Z,73.40
2022-09-14T21:58:29.916Z,73.40
2022-09-14T22:00:57.419Z,73.40
2022-09-14T22:03:24.654Z,73.40
2022-09-14T22:05:56.737Z,73.40
2022-09-14T22:08:23.534Z,73.40
2022-09-14T22:10:50.207Z,73.40
2022-09-14T22:13:16.904Z,73.50
2022-09-14T22:15:43.661Z,73.40
2022-09-14T22:18:10.443Z,73.60
2022-09-14T22:20:39.632Z,73.40
2022-09-14T22:23:06.441Z,73.40
2022-09-14T22:25:33.778Z,73.40
2022-09-14T22:28:00.439Z,74.10
2022-09-14T22:30:27.071Z,73.50
2022-09-14T22:32:53.739Z,73.50
2022-09-14T22:35:20.318Z,73.50
2022-09-14T22:37:48.194Z,73.50
2022-09-14T22:40:14.853Z,73.60
2022-09-14T22:42:41.543Z,73.50
2022-09-14T22:45:08.498Z,73.60
2022-09-14T22:47:35.751Z,73.60
2022-09-14T22:50:02.374Z,73.60
2022-09-14T22:52:29.043Z,73.70
2022-09-14T22:54:55.706Z,73.50
2022-09-14T22:57:23.953Z,73.60
2022-09-14T22:59:50.587Z,73.70
2022-09-14T23:02:17.244Z,73.70
2022-09-14T23:04:43.898Z,73.60
2022-09-14T23:07:10.663Z,73.70
2022-09-14T23:09:37.443Z,73.70
2022-09-14T23:12:04.115Z,73.70
2022-09-14T23:14:31.608Z,73.60
2022-09-14T23:16:58.336Z,73.60
2022-09-14T23:19:25.084Z,73.50
2022-09-14T23:21:51.698Z,73.60
2022-09-14T23:24:18.306Z,73.40
2022-09-14T23:26:44.909Z,73.50
2022-09-14T23:29:13.631Z,73.50
2022-09-14T23:31:40.250Z,73.40
2022-09-14T23:34:06.872Z,73.40
2022-09-14T23:36:33.750Z,73.50
2022-09-14T23:39:00.494Z,73.30
2022-09-14T23:41:27.367Z,73.40
2022-09-14T23:43:54.382Z,73.40
2022-09-14T23:46:21.516Z,73.30
2022-09-14T23:48:48.246Z,74.10
2022-09-14T23:51:14.959Z,73.40
2022-09-14T23:53:42.755Z,73.40
2022-09-14T23:56:09.398Z,73.40
2022-09-14T23:58:36.197Z,73.40
